Time;durP1;ratioP1;P1;durP2;ratioP2;P2;SDS_P1;SDS_P2;PMS_P1;PMS_P2;Temp;Humidity;BMP_temperature;BMP_pressure;BME280_temperature;BME280_humidity;BME280_pressure;Samples;Min_cycle;Max_cycle;Signal;HPM_P1;HPM_P2
2020/12/20 00:01:51;;;;;;;26.70;20.60;;;;;;;1.09;80.71;101318.41;5043827;28;20041;-75
2020/12/20 00:04:16;;;;;;;27.23;19.83;;;;;;;1.09;80.88;101322.72;5024340;28;20044;-75
2020/12/20 00:06:44;;;;;;;27.60;19.70;;;;;;;1.10;80.76;101306.28;5040335;28;20037;-75
2020/12/20 00:09:13;;;;;;;25.77;19.87;;;;;;;1.09;80.30;101314.91;5019721;28;20029;-75
2020/12/20 00:11:42;;;;;;;27.77;19.47;;;;;;;1.09;80.66;101317.53;5040170;28;20095;-75
2020/12/20 00:14:27;;;;;;;28.30;19.73;;;;;;;1.12;80.74;101315.06;5022506;28;20037;-75
2020/12/20 00:17:06;;;;;;;24.60;18.57;;;;;;;1.15;80.31;101317.78;5043527;28;20044;-75
2020/12/20 00:19:33;;;;;;;24.43;16.97;;;;;;;1.12;80.13;101314.16;5022368;28;20055;-75
2020/12/20 00:22:07;;;;;;;28.03;20.10;;;;;;;0.96;80.44;101323.00;5039912;28;20083;-74
2020/12/20 00:24:32;;;;;;;25.00;19.00;;;;;;;0.83;81.09;101322.41;5025846;28;20032;-75
2020/12/20 00:26:59;;;;;;;27.57;19.53;;;;;;;0.86;80.70;101320.00;5025701;28;20418;-74
2020/12/20 00:29:26;;;;;;;26.00;18.97;;;;;;;0.86;81.20;101316.47;5023434;28;20446;-75
2020/12/20 00:31:51;;;;;;;27.47;20.83;;;;;;;0.88;80.93;101318.31;5039880;28;20037;-75
2020/12/20 00:34:17;;;;;;;25.20;19.23;;;;;;;0.88;81.15;101333.03;5041040;28;20041;-75
2020/12/20 00:36:45;;;;;;;26.87;19.33;;;;;;;0.86;80.38;101332.97;5043095;28;20072;-75
2020/12/20 00:39:11;;;;;;;24.93;19.13;;;;;;;0.82;80.67;101320.66;5024787;28;20565;-75
2020/12/20 00:41:36;;;;;;;25.67;18.73;;;;;;;0.79;80.09;101328.31;5039735;28;20125;-75
2020/12/20 00:44:01;;;;;;;25.87;18.03;;;;;;;0.77;80.54;101331.66;5034225;28;20128;-75
2020/12/20 00:46:27;;;;;;;26.03;19.27;;;;;;;0.72;80.83;101328.84;5038390;28;20037;-75
2020/12/20 00:48:52;;;;;;;26.07;19.67;;;;;;;0.64;80.65;101332.78;5039641;28;20112;-75
2020/12/20 00:51:18;;;;;;;31.37;21.70;;;;;;;0.61;80.67;101335.25;5036553;28;20029;-74
2020/12/20 00:53:43;;;;;;;25.73;19.50;;;;;;;0.60;81.27;101326.56;5038954;28;20040;-74
2020/12/20 00:56:13;;;;;;;28.70;20.67;;;;;;;0.62;80.58;101326.63;5015537;28;20545;-74
2020/12/20 00:58:40;;;;;;;29.43;21.33;;;;;;;0.60;81.53;101317.88;5014770;28;20033;-75
2020/12/20 01:01:08;;;;;;;28.63;20.83;;;;;;;0.56;80.94;101336.75;5021592;28;20063;-75
2020/12/20 01:03:33;;;;;;;26.77;19.27;;;;;;;0.49;81.21;101330.34;5013914;28;20044;-74
2020/12/20 01:05:59;;;;;;;27.97;20.67;;;;;;;0.42;81.45;101323.13;5037241;28;20034;-74
2020/12/20 01:08:24;;;;;;;29.13;20.67;;;;;;;0.42;81.70;101329.19;5022548;28;20037;-74
2020/12/20 01:10:50;;;;;;;24.00;17.87;;;;;;;0.42;81.85;101318.81;5032872;28;20036;-74
2020/12/20 01:13:16;;;;;;;24.97;19.07;;;;;;;0.46;81.97;101331.94;5021337;28;20487;-74
2020/12/20 01:15:41;;;;;;;28.80;19.63;;;;;;;0.50;82.21;101331.25;5031324;28;20037;-74
2020/12/20 01:18:06;;;;;;;27.53;19.73;;;;;;;0.53;81.90;101329.69;5039253;28;20034;-75
2020/12/20 01:20:32;;;;;;;28.17;20.57;;;;;;;0.58;82.03;101329.91;5030099;28;20052;-74
2020/12/20 01:22:58;;;;;;;27.20;20.37;;;;;;;0.61;81.42;101325.75;5037818;28;20755;-75
2020/12/20 01:25:24;;;;;;;26.60;19.43;;;;;;;0.64;82.12;101327.59;5022403;28;20463;-75
2020/12/20 01:28:06;;;;;;;28.35;20.80;;;;;;;0.64;81.26;101331.09;5034907;28;20029;-74
2020/12/20 01:30:38;;;;;;;27.23;18.87;;;;;;;0.62;81.77;101321.44;5021285;28;20055;-75
2020/12/20 01:33:03;;;;;;;27.77;19.93;;;;;;;0.64;81.54;101319.81;5017482;28;20475;-75
2020/12/20 01:35:34;;;;;;;29.57;19.83;;;;;;;0.68;81.80;101321.72;5021464;28;20030;-75
2020/12/20 01:37:59;;;;;;;30.90;21.57;;;;;;;0.68;81.49;101316.50;5033663;28;20408;-75
2020/12/20 01:40:26;;;;;;;26.87;19.20;;;;;;;0.69;81.30;101318.31;5021395;28;20152;-75
2020/12/20 01:42:55;;;;;;;27.23;20.57;;;;;;;0.70;81.47;101309.69;5032153;28;20131;-75
2020/12/20 01:45:26;;;;;;;25.40;18.83;;;;;;;0.74;81.83;101311.63;5037682;28;20618;-75
2020/12/20 01:47:52;;;;;;;30.97;22.37;;;;;;;0.74;81.64;101316.81;5039051;28;20108;-75
2020/12/20 01:50:17;;;;;;;29.27;20.93;;;;;;;0.73;82.02;101319.34;5040466;28;20373;-74
2020/12/20 01:52:44;;;;;;;27.53;19.60;;;;;;;0.72;81.88;101318.44;5024358;28;20041;-74
2020/12/20 01:55:19;;;;;;;27.35;20.42;;;;;;;0.76;81.86;101316.88;5024282;28;20028;-74
2020/12/20 01:57:57;;;;;;;29.07;20.27;;;;;;;0.76;81.79;101322.06;5032036;28;20029;-74
2020/12/20 02:00:33;;;;;;;29.07;21.20;;;;;;;0.76;81.85;101299.59;5021407;28;20029;-74
2020/12/20 02:03:23;;;;;;;29.73;20.23;;;;;;;0.72;81.83;101299.38;5038469;28;20393;-73
2020/12/20 02:05:51;;;;;;;31.80;21.53;;;;;;;0.67;81.19;101301.75;5018425;28;20108;-74
2020/12/20 02:08:18;;;;;;;29.57;21.63;;;;;;;0.61;81.74;101306.69;5039504;28;20492;-73
2020/12/20 02:10:43;;;;;;;28.53;21.53;;;;;;;0.57;81.16;101307.34;5024756;28;20444;-73
2020/12/20 02:13:10;;;;;;;29.73;20.37;;;;;;;0.50;81.26;101302.66;5021663;28;20056;-74
2020/12/20 02:15:39;;;;;;;28.30;21.13;;;;;;;0.45;81.67;101302.47;5025911;28;20037;-73
2020/12/20 02:18:05;;;;;;;30.03;22.37;;;;;;;0.47;81.16;101292.13;5032869;28;20084;-73
2020/12/20 02:20:35;;;;;;;26.80;19.03;;;;;;;0.51;81.41;101291.47;5025246;28;20033;-73
2020/12/20 02:23:04;;;;;;;30.10;20.40;;;;;;;0.54;81.45;101294.22;5032473;28;20037;-73
2020/12/20 02:25:42;;;;;;;34.13;24.77;;;;;;;0.53;81.85;101287.25;5025778;28;20128;-73
2020/12/20 02:28:20;;;;;;;30.47;21.67;;;;;;;0.52;81.85;101293.25;5034386;28;20040;-73
2020/12/20 02:30:45;;;;;;;32.23;22.13;;;;;;;0.53;81.48;101284.66;5027757;28;20475;-73
2020/12/20 02:33:18;;;;;;;29.00;20.70;;;;;;;0.57;81.75;101281.38;5043576;28;20029;-72
2020/12/20 02:35:44;;;;;;;31.23;22.83;;;;;;;0.60;81.91;101272.03;5042111;28;20037;-73
2020/12/20 02:38:10;;;;;;;29.43;22.00;;;;;;;0.63;81.33;101277.34;5021514;28;20033;-73
2020/12/20 02:40:39;;;;;;;34.03;23.63;;;;;;;0.64;81.84;101271.31;5031593;28;20033;-74
2020/12/20 02:43:07;;;;;;;30.07;20.50;;;;;;;0.65;81.82;101280.91;5020583;28;20044;-72
2020/12/20 02:45:33;;;;;;;33.77;23.50;;;;;;;0.68;81.57;101285.34;5032352;28;20029;-73
2020/12/20 02:47:59;;;;;;;32.50;23.07;;;;;;;0.69;81.25;101286.25;5032391;28;20436;-73
2020/12/20 02:50:27;;;;;;;32.43;22.90;;;;;;;0.73;81.70;101290.75;5035022;28;20029;-73
2020/12/20 02:52:52;;;;;;;34.87;24.37;;;;;;;0.75;81.62;101289.13;5024898;28;20043;-74
2020/12/20 02:55:22;;;;;;;33.23;22.83;;;;;;;0.78;81.91;101289.25;5033330;28;20084;-74
2020/12/20 02:57:56;;;;;;;34.37;23.73;;;;;;;0.82;81.67;101283.38;5027194;28;20513;-74
2020/12/20 03:00:40;;;;;;;33.00;22.00;;;;;;;0.87;81.48;101277.56;5023585;28;20036;-74
2020/12/20 03:03:10;;;;;;;31.20;22.10;;;;;;;0.92;81.78;101276.88;5037103;28;20029;-73
2020/12/20 03:05:38;;;;;;;34.37;22.60;;;;;;;0.95;81.30;101269.25;5014946;28;20511;-74
2020/12/20 03:08:04;;;;;;;31.50;22.30;;;;;;;0.98;81.74;101266.78;5036716;28;20151;-74
2020/12/20 03:10:30;;;;;;;33.10;23.50;;;;;;;1.00;81.44;101267.72;5023742;28;20438;-74
2020/12/20 03:12:56;;;;;;;34.40;23.37;;;;;;;1.02;81.12;101263.47;5018632;28;20458;-74
2020/12/20 03:15:23;;;;;;;35.17;24.10;;;;;;;1.02;81.65;101255.66;5007128;28;20041;-74
2020/12/20 03:17:49;;;;;;;36.30;25.40;;;;;;;1.07;81.23;101268.06;5017264;28;20099;-73
2020/12/20 03:20:17;;;;;;;32.57;22.60;;;;;;;1.07;81.08;101265.47;5023507;28;20410;-73
2020/12/20 03:22:44;;;;;;;34.00;22.53;;;;;;;1.08;81.30;101266.34;5033388;28;20079;-74
2020/12/20 03:25:34;;;;;;;32.13;23.03;;;;;;;1.10;80.84;101259.50;5031290;28;20037;-73
2020/12/20 03:28:19;;;;;;;33.57;23.10;;;;;;;1.15;81.24;101270.97;5042882;28;20034;-73
2020/12/20 03:31:07;;;;;;;32.97;22.93;;;;;;;1.18;80.98;101276.34;5042138;28;20044;-74
2020/12/20 03:33:48;;;;;;;29.73;21.00;;;;;;;1.20;81.25;101266.88;5040751;28;20033;-73
2020/12/20 03:36:42;;;;;;;31.67;21.20;;;;;;;1.23;81.22;101268.72;5033176;28;20054;-73
2020/12/20 03:39:11;;;;;;;29.83;20.53;;;;;;;1.24;80.66;101266.19;5036950;28;20159;-74
2020/12/20 03:41:36;;;;;;;32.90;21.33;;;;;;;1.28;81.30;101265.53;5030531;28;20112;-74
2020/12/20 03:44:03;;;;;;;32.93;22.33;;;;;;;1.30;80.98;101271.66;5035386;28;20037;-73
2020/12/20 03:46:28;;;;;;;32.43;22.33;;;;;;;1.34;80.82;101269.19;5022969;28;20056;-74
2020/12/20 03:48:53;;;;;;;31.33;21.57;;;;;;;1.38;80.90;101271.09;5040656;28;20159;-73
2020/12/20 03:51:21;;;;;;;34.53;24.03;;;;;;;1.39;80.76;101267.66;5038161;28;20044;-73
2020/12/20 03:53:50;;;;;;;31.33;21.50;;;;;;;1.39;80.63;101273.78;5022509;28;20412;-73
2020/12/20 03:56:17;;;;;;;32.43;22.33;;;;;;;1.40;80.66;101272.06;5004527;28;20041;-74
2020/12/20 03:59:05;;;;;;;35.27;24.27;;;;;;;1.41;80.06;101279.91;5032168;28;20135;-73
2020/12/20 04:01:31;;;;;;;32.60;21.77;;;;;;;1.42;80.07;101283.44;5039127;28;20033;-73
2020/12/20 04:03:57;;;;;;;31.47;22.30;;;;;;;1.44;80.42;101285.28;5021289;28;20503;-73
2020/12/20 04:06:23;;;;;;;33.97;23.70;;;;;;;1.47;80.31;101289.72;5055066;28;20040;-73
2020/12/20 04:08:49;;;;;;;32.03;22.40;;;;;;;1.47;80.62;101300.13;5016212;28;20519;-74
2020/12/20 04:11:27;;;;;;;29.63;20.83;;;;;;;1.52;79.96;101296.00;5031365;28;20094;-73
2020/12/20 04:13:53;;;;;;;32.87;22.33;;;;;;;1.53;79.46;101297.78;5020833;28;20071;-74
2020/12/20 04:16:18;;;;;;;30.43;20.07;;;;;;;1.61;79.34;101296.38;5030670;28;20028;-74
2020/12/20 04:18:43;;;;;;;32.07;20.87;;;;;;;1.65;79.69;101295.69;5028701;28;20036;-73
2020/12/20 04:21:09;;;;;;;29.77;20.30;;;;;;;1.70;79.68;101291.56;5019723;28;20036;-74
2020/12/20 04:23:35;;;;;;;34.03;22.30;;;;;;;1.77;79.26;101286.63;5022235;28;20029;-73
2020/12/20 04:26:15;;;;;;;28.97;19.73;;;;;;;1.82;79.31;101280.78;5036701;28;20029;-74
2020/12/20 04:29:06;;;;;;;31.80;22.23;;;;;;;1.79;79.45;101284.97;5025439;28;20033;-73
2020/12/20 04:31:37;;;;;;;33.73;22.90;;;;;;;1.81;79.49;101280.69;5022168;28;20029;-74
2020/12/20 04:34:03;;;;;;;32.47;21.27;;;;;;;1.82;78.99;101282.50;5021958;28;20178;-74
2020/12/20 04:36:29;;;;;;;30.60;22.73;;;;;;;1.78;79.07;101272.75;5038317;28;20032;-74
2020/12/20 04:39:03;;;;;;;32.13;21.80;;;;;;;1.71;79.13;101276.84;5025981;28;20124;-74
2020/12/20 04:41:29;;;;;;;30.70;22.00;;;;;;;1.65;79.36;101272.28;5005215;28;20087;-74
2020/12/20 04:44:00;;;;;;;30.20;20.70;;;;;;;1.61;79.60;101272.09;5028889;28;20029;-73
2020/12/20 04:46:27;;;;;;;31.77;20.83;;;;;;;1.60;79.47;101279.00;5022665;28;20033;-74
2020/12/20 04:49:29;;;;;;;31.83;21.67;;;;;;;1.50;79.39;101269.91;5027385;28;20095;-74
2020/12/20 04:52:00;;;;;;;27.77;19.30;;;;;;;1.46;79.52;101280.13;5001878;28;20025;-74
2020/12/20 04:54:31;;;;;;;35.53;21.97;;;;;;;1.40;79.70;101279.88;5021750;28;20087;-74
2020/12/20 04:56:56;;;;;;;31.13;20.43;;;;;;;1.33;79.75;101272.63;5021849;28;20033;-74
2020/12/20 04:59:30;;;;;;;31.83;20.87;;;;;;;1.28;79.94;101267.19;5038123;28;20399;-75
2020/12/20 05:01:59;;;;;;;32.87;20.90;;;;;;;1.24;80.09;101263.59;5026159;28;20029;-74
2020/12/20 05:04:26;;;;;;;29.43;20.53;;;;;;;1.20;79.91;101272.06;5039926;28;20025;-74
2020/12/20 05:06:55;;;;;;;31.10;20.93;;;;;;;1.19;80.28;101266.81;5027062;28;20436;-74
2020/12/20 05:09:47;;;;;;;31.77;21.23;;;;;;;1.14;80.88;101263.13;5021663;28;20034;-73
2020/12/20 05:12:26;;;;;;;29.57;19.30;;;;;;;1.08;80.41;101264.63;5024721;28;20515;-73
2020/12/20 05:14:54;;;;;;;30.00;19.90;;;;;;;1.08;80.74;101274.16;5025071;28;20033;-74
2020/12/20 05:17:24;;;;;;;30.00;20.13;;;;;;;1.07;80.25;101274.97;5022703;28;20029;-73
2020/12/20 05:20:07;;;;;;;27.47;17.87;;;;;;;1.03;80.84;101270.47;5021718;28;20032;-74
2020/12/20 05:22:34;;;;;;;28.13;18.03;;;;;;;1.01;80.58;101266.91;5024767;28;20033;-73
2020/12/20 05:25:16;;;;;;;25.83;17.93;;;;;;;0.99;80.49;101263.34;5025028;28;20029;-74
2020/12/20 05:27:43;;;;;;;25.30;17.57;;;;;;;0.99;80.25;101265.94;5038292;28;20033;-74
2020/12/20 05:30:18;;;;;;;25.13;16.93;;;;;;;0.97;80.82;101265.88;5022844;28;20392;-73
2020/12/20 05:33:06;;;;;;;24.97;17.30;;;;;;;0.96;80.60;101252.81;5042274;28;20410;-73
2020/12/20 05:35:33;;;;;;;25.67;17.13;;;;;;;0.94;80.67;101257.03;5021420;28;20033;-74
2020/12/20 05:37:59;;;;;;;25.33;16.57;;;;;;;0.93;80.17;101244.88;5033213;28;20033;-73
2020/12/20 05:40:31;;;;;;;24.30;15.70;;;;;;;0.87;80.47;101251.59;5023514;28;20033;-74
2020/12/20 05:43:00;;;;;;;29.57;16.57;;;;;;;0.82;81.03;101258.28;5037123;28;20032;-73
2020/12/20 05:45:28;;;;;;;22.30;14.30;;;;;;;0.83;81.16;101260.06;5025188;28;20036;-74
2020/12/20 05:48:16;;;;;;;22.57;14.67;;;;;;;0.79;80.89;101260.75;5021345;28;20095;-73
2020/12/20 05:50:52;;;;;;;;;;;;;;;0.75;81.28;101266.63;5043344;28;20036;-74
2020/12/20 05:53:22;;;;;;;20.27;12.40;;;;;;;0.78;80.68;101269.34;5039517;28;19982;-73
2020/12/20 05:55:48;;;;;;;19.67;12.33;;;;;;;0.82;80.35;101270.41;5032996;28;20036;-74
2020/12/20 05:58:14;;;;;;;18.90;12.57;;;;;;;0.81;80.64;101263.41;5043560;28;20542;-74
2020/12/20 06:00:41;;;;;;;20.57;13.67;;;;;;;0.83;80.62;101270.44;5028313;28;20075;-73
2020/12/20 06:03:08;;;;;;;18.57;12.63;;;;;;;0.82;80.87;101268.69;5027266;28;20490;-74
2020/12/20 06:05:38;;;;;;;18.67;12.47;;;;;;;0.85;80.68;101274.00;5042673;28;20431;-73
2020/12/20 06:08:07;;;;;;;21.33;12.27;;;;;;;0.85;80.75;101268.81;5049541;28;20072;-74
2020/12/20 06:10:36;;;;;;;18.07;12.10;;;;;;;0.87;80.65;101272.38;5046319;28;20080;-74
2020/12/20 06:13:04;;;;;;;17.53;11.83;;;;;;;0.88;80.50;101281.06;5016584;28;20041;-73
2020/12/20 06:15:31;;;;;;;16.10;11.33;;;;;;;0.90;80.64;101288.94;5042843;28;20045;-74
2020/12/20 06:18:01;;;;;;;17.90;12.30;;;;;;;0.90;80.83;101278.53;5019921;28;20034;-74
2020/12/20 06:20:28;;;;;;;16.60;11.20;;;;;;;0.90;80.83;101283.72;5042414;28;20614;-74
2020/12/20 06:22:55;;;;;;;15.07;10.60;;;;;;;0.91;80.25;101281.19;5042013;28;20037;-73
2020/12/20 06:25:25;;;;;;;18.13;11.30;;;;;;;0.93;80.46;101286.47;5023157;28;20052;-74
2020/12/20 06:27:51;;;;;;;16.43;11.70;;;;;;;0.95;80.52;101295.22;5042274;28;20036;-74
2020/12/20 06:30:19;;;;;;;15.63;10.57;;;;;;;0.97;80.38;101293.56;5043464;28;20416;-73
2020/12/20 06:32:49;;;;;;;16.63;11.27;;;;;;;1.01;80.08;101292.91;5045393;28;20120;-74
2020/12/20 06:35:19;;;;;;;16.87;10.80;;;;;;;1.05;80.34;101287.03;5044475;28;20162;-74
2020/12/20 06:37:47;;;;;;;15.63;10.60;;;;;;;1.09;80.21;101288.91;5017960;28;20037;-74
2020/12/20 06:40:33;;;;;;;14.40;9.77;;;;;;;1.14;79.79;101292.63;5041991;28;20094;-74
2020/12/20 06:42:58;;;;;;;18.17;12.00;;;;;;;1.16;79.64;101288.38;5027645;28;20102;-74
2020/12/20 06:45:25;;;;;;;16.60;10.67;;;;;;;1.19;79.56;101290.22;5044271;28;20033;-74
2020/12/20 06:47:53;;;;;;;17.43;11.77;;;;;;;1.21;79.54;101294.66;5027650;28;20060;-74
2020/12/20 06:50:41;;;;;;;13.60;9.73;;;;;;;1.20;79.10;101292.88;5043689;28;20654;-74
2020/12/20 06:53:08;;;;;;;15.07;10.33;;;;;;;1.24;79.30;101291.31;5041583;28;20041;-74
2020/12/20 06:55:34;;;;;;;17.60;10.67;;;;;;;1.23;79.59;101287.84;5041897;28;20033;-73
2020/12/20 06:58:02;;;;;;;13.90;9.77;;;;;;;1.27;79.06;101287.13;5041697;28;20462;-74
2020/12/20 07:00:51;;;;;;;15.70;11.00;;;;;;;1.25;78.82;101286.16;5044493;28;20036;-71
2020/12/20 07:03:32;;;;;;;13.30;9.93;;;;;;;1.24;79.51;101289.59;5025494;28;20036;-70
2020/12/20 07:06:13;;;;;;;14.07;10.03;;;;;;;1.25;79.15;101291.38;5041857;28;20049;-70
2020/12/20 07:08:39;;;;;;;14.63;10.57;;;;;;;1.28;79.18;101291.53;5044854;28;20392;-70
2020/12/20 07:11:16;;;;;;;15.77;11.00;;;;;;;1.34;79.30;101290.91;5049487;28;20115;-70
2020/12/20 07:13:43;;;;;;;16.57;11.50;;;;;;;1.39;78.79;101293.66;5041116;28;20079;-70
2020/12/20 07:16:14;;;;;;;15.97;10.57;;;;;;;1.41;78.67;101292.91;5041677;28;20508;-70
2020/12/20 07:18:56;;;;;;;15.63;10.23;;;;;;;1.42;78.71;101293.84;5026886;28;20044;-70
2020/12/20 07:21:26;;;;;;;16.27;11.20;;;;;;;1.44;78.67;101294.75;5042563;28;20086;-70
2020/12/20 07:23:53;;;;;;;14.80;9.57;;;;;;;1.45;78.64;101293.97;5040776;28;20033;-70
2020/12/20 07:26:22;;;;;;;15.17;10.97;;;;;;;1.43;78.29;101293.88;5042463;28;20033;-70
2020/12/20 07:28:47;;;;;;;14.00;10.37;;;;;;;1.43;78.35;101298.19;5044609;28;20577;-70
2020/12/20 07:31:18;;;;;;;15.07;10.60;;;;;;;1.40;78.79;101290.25;5043727;28;20155;-70
2020/12/20 07:33:44;;;;;;;14.27;10.83;;;;;;;1.41;78.48;101294.63;5000278;28;20059;-70
2020/12/20 07:36:10;;;;;;;15.47;11.50;;;;;;;1.41;78.49;101294.63;5040904;28;20115;-70
2020/12/20 07:38:35;;;;;;;14.33;10.67;;;;;;;1.42;78.63;101288.63;5040816;28;20595;-70
2020/12/20 07:41:11;;;;;;;15.53;11.10;;;;;;;1.45;78.80;101293.97;5040988;28;20040;-70
2020/12/20 07:43:37;;;;;;;14.47;10.23;;;;;;;1.48;78.89;101299.28;5040557;28;20094;-70
2020/12/20 07:46:06;;;;;;;15.33;11.43;;;;;;;1.51;78.64;101291.59;5019124;28;20033;-70
2020/12/20 07:48:31;;;;;;;15.97;11.40;;;;;;;1.56;78.70;101297.00;5040775;28;20034;-70
2020/12/20 07:51:15;;;;;;;15.93;11.77;;;;;;;1.57;78.46;101294.47;5040672;28;20037;-70
2020/12/20 07:53:46;;;;;;;15.60;11.53;;;;;;;1.63;78.56;101294.75;5040354;28;20168;-70
2020/12/20 07:56:32;;;;;;;16.93;10.83;;;;;;;1.66;78.32;101289.66;5041231;28;20030;-70
2020/12/20 07:59:04;;;;;;;16.13;11.00;;;;;;;1.72;78.43;101292.50;5043994;28;20032;-70
2020/12/20 08:01:30;;;;;;;16.20;11.90;;;;;;;1.74;78.27;101290.88;5040674;28;20033;-71
2020/12/20 08:04:04;;;;;;;15.37;11.63;;;;;;;1.80;78.13;101286.75;5033491;28;20156;-70
2020/12/20 08:06:39;;;;;;;16.17;11.80;;;;;;;1.87;78.33;101288.78;5040426;28;20079;-71
2020/12/20 08:09:15;;;;;;;17.00;11.97;;;;;;;1.89;77.98;101282.81;5037650;28;20037;-70
2020/12/20 08:11:42;;;;;;;15.25;11.10;;;;;;;1.95;77.78;101284.78;5040461;28;20095;-70
2020/12/20 08:14:10;;;;;;;15.67;10.97;;;;;;;2.02;77.70;101279.00;5039633;28;20033;-71
2020/12/20 08:16:40;;;;;;;15.10;11.50;;;;;;;2.10;77.54;101284.50;5043370;28;20044;-70
2020/12/20 08:19:16;;;;;;;15.40;11.50;;;;;;;2.18;77.27;101285.69;5042439;28;20029;-70
2020/12/20 08:22:03;;;;;;;15.00;10.02;;;;;;;2.28;77.16;101284.31;5044325;28;20495;-71
2020/12/20 08:24:35;;;;;;;14.82;10.63;;;;;;;2.39;77.14;101283.06;5049034;28;20094;-71
2020/12/20 08:27:21;;;;;;;16.30;11.85;;;;;;;2.48;76.29;101279.91;5022672;28;20082;-71
2020/12/20 08:29:49;;;;;;;16.30;12.18;;;;;;;2.57;76.60;101283.75;5042349;28;20604;-70
2020/12/20 08:32:26;;;;;;;14.88;10.80;;;;;;;2.66;76.18;101290.16;5045019;28;20483;-70
2020/12/20 08:34:52;;;;;;;15.50;10.75;;;;;;;2.74;76.29;101280.91;5008881;28;20072;-70
2020/12/20 08:37:21;;;;;;;15.15;11.52;;;;;;;2.80;76.01;101273.28;5041663;28;20076;-71
2020/12/20 08:39:47;;;;;;;14.40;10.15;;;;;;;2.88;75.82;101274.47;5026072;28;20037;-71
2020/12/20 08:42:17;;;;;;;14.45;10.95;;;;;;;2.95;75.58;101279.09;5021583;28;20101;-70
2020/12/20 08:44:49;;;;;;;14.45;10.57;;;;;;;3.00;75.26;101274.03;5039703;28;20094;-71
2020/12/20 08:47:16;;;;;;;13.95;10.40;;;;;;;3.04;75.03;101274.22;5044527;28;20030;-70
2020/12/20 08:49:53;;;;;;;14.98;11.23;;;;;;;3.02;74.92;101275.88;5044512;28;20045;-71
2020/12/20 08:52:18;;;;;;;13.98;10.52;;;;;;;3.04;75.17;101271.59;5046614;28;20043;-70
2020/12/20 08:54:48;;;;;;;14.32;10.68;;;;;;;3.00;75.13;101277.53;5041458;28;20041;-71
2020/12/20 08:57:13;;;;;;;13.40;10.18;;;;;;;3.01;75.19;101279.31;5050827;28;20491;-70
2020/12/20 08:59:41;;;;;;;13.25;9.70;;;;;;;3.04;75.29;101276.81;5039173;28;20046;-70
2020/12/20 09:02:16;;;;;;;14.27;10.70;;;;;;;3.10;75.11;101277.88;5038893;28;20029;-69
2020/12/20 09:04:53;;;;;;;13.13;9.88;;;;;;;3.18;74.82;101292.97;5036484;28;20047;-71
2020/12/20 09:07:18;;;;;;;12.52;9.77;;;;;;;3.25;74.46;101279.31;5041556;28;20480;-70
2020/12/20 09:09:44;;;;;;;14.43;10.68;;;;;;;3.30;74.39;101276.84;5045785;28;20041;-71
2020/12/20 09:12:13;;;;;;;12.90;9.43;;;;;;;3.35;74.58;101280.50;5039179;28;20108;-70
2020/12/20 09:14:38;;;;;;;12.75;10.05;;;;;;;3.37;74.22;101275.34;5042219;28;20040;-71
2020/12/20 09:17:04;;;;;;;12.73;9.75;;;;;;;3.43;73.84;101278.16;5042993;28;20095;-70
2020/12/20 09:19:29;;;;;;;12.27;9.18;;;;;;;3.55;73.90;101277.72;5042089;28;20120;-71
2020/12/20 09:21:55;;;;;;;12.95;10.13;;;;;;;3.60;73.63;101276.16;5042507;28;20047;-71
2020/12/20 09:24:20;;;;;;;12.75;10.10;;;;;;;3.64;73.31;101272.78;5040392;28;20072;-71
2020/12/20 09:26:56;;;;;;;13.80;9.77;;;;;;;3.66;73.79;101273.75;5039046;28;20033;-70
2020/12/20 09:29:22;;;;;;;12.77;10.02;;;;;;;3.73;73.40;101275.72;5040839;28;20038;-71
2020/12/20 09:31:49;;;;;;;12.57;8.85;;;;;;;3.78;73.74;101275.88;5042452;28;20039;-71
2020/12/20 09:34:14;;;;;;;14.85;10.45;;;;;;;3.82;73.52;101277.75;5023265;28;20029;-71
2020/12/20 09:36:40;;;;;;;12.48;9.10;;;;;;;3.86;73.46;101280.53;5038953;28;20408;-71
2020/12/20 09:39:06;;;;;;;11.27;8.85;;;;;;;3.91;73.59;101278.06;5038941;28;20045;-71
2020/12/20 09:41:35;;;;;;;13.02;9.82;;;;;;;3.92;73.31;101275.50;5042076;28;20380;-71
2020/12/20 09:44:00;;;;;;;11.82;9.32;;;;;;;3.99;73.34;101265.25;5041993;28;20503;-71
2020/12/20 09:46:31;;;;;;;12.98;10.23;;;;;;;4.02;73.11;101270.56;5039787;28;20040;-70
2020/12/20 09:48:58;;;;;;;13.45;10.20;;;;;;;4.04;73.01;101263.69;5032775;28;20029;-71
2020/12/20 09:51:25;;;;;;;12.57;9.23;;;;;;;4.11;72.98;101260.41;5021073;28;20048;-70
2020/12/20 09:53:52;;;;;;;12.57;9.75;;;;;;;4.18;73.06;101257.16;5038606;28;20040;-72
2020/12/20 09:56:18;;;;;;;11.98;9.15;;;;;;;4.20;72.62;101260.72;5039916;28;20029;-71
2020/12/20 09:58:44;;;;;;;11.85;9.63;;;;;;;4.19;72.56;101264.16;5042097;28;20470;-71
2020/12/20 10:01:23;;;;;;;12.13;9.27;;;;;;;4.23;72.66;101257.31;5041901;28;20041;-70
2020/12/20 10:03:48;;;;;;;13.60;9.70;;;;;;;4.22;72.86;101250.28;5038532;28;20056;-69
2020/12/20 10:06:14;;;;;;;13.80;10.40;;;;;;;4.18;72.18;101246.72;5039669;28;20045;-71
2020/12/20 10:08:40;;;;;;;12.95;9.30;;;;;;;4.21;72.44;101249.41;5041924;28;20037;-71
2020/12/20 10:11:07;;;;;;;13.50;10.65;;;;;;;4.20;72.27;101250.25;5042307;28;20033;-71
2020/12/20 10:13:32;;;;;;;13.30;10.45;;;;;;;4.26;72.36;101242.59;5037419;28;20048;-68
2020/12/20 10:15:58;;;;;;;12.95;9.60;;;;;;;4.30;72.26;101247.09;5037517;28;20037;-69
2020/12/20 10:18:23;;;;;;;13.52;10.70;;;;;;;4.34;72.42;101235.00;5038829;28;20656;-73
2020/12/20 10:20:48;;;;;;;12.35;9.65;;;;;;;4.39;71.88;101247.34;5041442;28;20559;-70
2020/12/20 10:23:13;;;;;;;13.50;10.23;;;;;;;4.43;72.39;101250.06;5040965;28;20514;-70
2020/12/20 10:25:40;;;;;;;13.25;10.13;;;;;;;4.47;72.06;101249.31;5039632;28;20450;-69
2020/12/20 10:28:06;;;;;;;13.85;10.45;;;;;;;4.54;72.04;101243.44;5042338;28;20032;-70
2020/12/20 10:30:31;;;;;;;11.85;9.63;;;;;;;4.63;72.48;101245.44;5045290;28;20557;-68
2020/12/20 10:32:57;;;;;;;12.18;9.65;;;;;;;4.71;72.06;101242.19;5045383;28;20028;-70
2020/12/20 10:35:27;;;;;;;12.73;11.20;;;;;;;4.74;71.75;101244.00;5043562;28;20063;-69
2020/12/20 10:37:58;;;;;;;12.23;9.98;;;;;;;4.86;72.02;101243.50;5018925;28;20083;-69
2020/12/20 10:40:26;;;;;;;11.95;9.60;;;;;;;4.94;71.45;101240.25;5042011;28;20060;-69
2020/12/20 10:42:52;;;;;;;11.30;9.50;;;;;;;5.05;71.99;101243.16;5002164;28;20044;-69
2020/12/20 10:45:18;;;;;;;12.75;9.40;;;;;;;5.14;71.12;101237.31;5042054;28;20033;-68
2020/12/20 10:47:44;;;;;;;10.02;7.97;;;;;;;5.22;71.21;101233.16;5041983;28;20633;-68
2020/12/20 10:50:10;;;;;;;10.85;9.32;;;;;;;5.25;70.95;101231.50;5042100;28;20037;-68
2020/12/20 10:52:35;;;;;;;10.82;8.70;;;;;;;5.27;70.33;101227.22;5044881;28;20033;-68
2020/12/20 10:55:02;;;;;;;10.85;8.52;;;;;;;5.33;70.43;101228.22;5045334;28;20040;-69
2020/12/20 10:57:27;;;;;;;11.95;8.48;;;;;;;5.37;70.41;101220.50;5042400;28;20037;-70
2020/12/20 10:59:52;;;;;;;10.05;8.23;;;;;;;5.39;70.00;101216.16;5041552;28;20061;-69
2020/12/20 11:02:18;;;;;;;10.98;8.18;;;;;;;5.46;70.02;101227.69;5042793;28;20046;-68
2020/12/20 11:04:43;;;;;;;10.27;8.35;;;;;;;5.50;69.77;101224.28;5044999;28;20039;-69
2020/12/20 11:07:09;;;;;;;11.60;8.90;;;;;;;5.55;69.81;101212.19;5044776;28;20029;-69
2020/12/20 11:09:34;;;;;;;10.65;8.00;;;;;;;5.58;69.48;101212.28;5041529;28;20377;-67
2020/12/20 11:12:00;;;;;;;11.63;7.95;;;;;;;5.65;69.29;101224.66;5041518;28;20037;-69
2020/12/20 11:14:25;;;;;;;8.45;7.13;;;;;;;5.62;69.07;101219.38;5043441;28;20037;-68
2020/12/20 11:16:52;;;;;;;9.05;7.03;;;;;;;5.66;69.46;101209.88;5044730;28;20033;-70
2020/12/20 11:19:19;;;;;;;9.93;7.60;;;;;;;5.70;69.31;101212.56;5041654;28;20141;-68
2020/12/20 11:21:48;;;;;;;9.02;7.57;;;;;;;5.71;68.70;101218.69;5044688;28;20112;-69
2020/12/20 11:24:14;;;;;;;8.45;6.78;;;;;;;5.69;68.87;101218.69;5043749;28;20036;-70
2020/12/20 11:26:43;;;;;;;8.55;7.10;;;;;;;5.75;68.94;101217.06;5041128;28;20567;-69
2020/12/20 11:29:08;;;;;;;8.60;6.75;;;;;;;5.80;68.99;101218.06;5041154;28;20488;-69
2020/12/20 11:31:34;;;;;;;8.40;6.60;;;;;;;5.92;68.73;101218.31;5044464;28;20090;-68